sensor_id;sensor_type;location;lat;lon;timestamp;pressure;altitude;pressure_sealevel;temperature;humidity
71109;BME280;59614;51.012;-1.648;2023-03-15T00:00:37;100604.91;;;1.01;100.00
71109;BME280;59614;51.012;-1.648;2023-03-15T00:03:03;100604.03;;;1.02;100.00
71109;BME280;59614;51.012;-1.648;2023-03-15T00:05:30;100605.06;;;1.09;100.00
71109;BME280;59614;51.012;-1.648;2023-03-15T00:07:57;100600.78;;;1.10;100.00
71109;BME280;59614;51.012;-1.648;2023-03-15T00:10:22;100600.47;;;0.97;100.00
71109;BME280;59614;51.012;-1.648;2023-03-15T00:12:47;100604.47;;;0.84;100.00
71109;BME280;59614;51.012;-1.648;2023-03-15T00:15:13;100610.44;;;0.82;100.00
71109;BME280;59614;51.012;-1.648;2023-03-15T00:17:40;100617.31;;;0.80;100.00
71109;BME280;59614;51.012;-1.648;2023-03-15T00:20:05;100625.97;;;0.79;100.00
71109;BME280;59614;51.012;-1.648;2023-03-15T00:22:31;100626.84;;;0.79;100.00
71109;BME280;59614;51.012;-1.648;2023-03-15T00:24:56;100631.88;;;0.73;100.00
71109;BME280;59614;51.012;-1.648;2023-03-15T00:27:22;100629.31;;;0.74;100.00
71109;BME280;59614;51.012;-1.648;2023-03-15T00:29:47;100632.19;;;0.85;100.00
71109;BME280;59614;51.012;-1.648;2023-03-15T00:32:13;100624.78;;;0.99;100.00
71109;BME280;59614;51.012;-1.648;2023-03-15T00:34:38;100618.00;;;1.06;100.00
71109;BME280;59614;51.012;-1.648;2023-03-15T00:37:05;100616.19;;;1.03;100.00
71109;BME280;59614;51.012;-1.648;2023-03-15T00:39:30;100624.06;;;1.05;100.00
71109;BME280;59614;51.012;-1.648;2023-03-15T00:41:56;100633.59;;;1.06;100.00
71109;BME280;59614;51.012;-1.648;2023-03-15T00:44:22;100639.81;;;1.13;100.00
71109;BME280;59614;51.012;-1.648;2023-03-15T00:46:49;100647.69;;;1.16;100.00
71109;BME280;59614;51.012;-1.648;2023-03-15T00:49:14;100638.34;;;1.22;100.00
71109;BME280;59614;51.012;-1.648;2023-03-15T00:51:39;100628.75;;;1.20;100.00
71109;BME280;59614;51.012;-1.648;2023-03-15T00:54:05;100634.81;;;1.20;100.00
71109;BME280;59614;51.012;-1.648;2023-03-15T00:56:30;100643.44;;;1.18;100.00
71109;BME280;59614;51.012;-1.648;2023-03-15T00:58:56;100644.38;;;1.21;100.00
71109;BME280;59614;51.012;-1.648;2023-03-15T01:01:25;100642.91;;;1.31;100.00
71109;BME280;59614;51.012;-1.648;2023-03-15T01:03:51;100637.59;;;1.27;100.00
71109;BME280;59614;51.012;-1.648;2023-03-15T01:06:19;100638.50;;;1.29;100.00
71109;BME280;59614;51.012;-1.648;2023-03-15T01:08:45;100642.50;;;1.16;100.00
71109;BME280;59614;51.012;-1.648;2023-03-15T01:11:14;100633.72;;;1.11;100.00
71109;BME280;59614;51.012;-1.648;2023-03-15T01:13:40;100648.59;;;1.16;100.00
71109;BME280;59614;51.012;-1.648;2023-03-15T01:16:06;100637.38;;;1.17;100.00
71109;BME280;59614;51.012;-1.648;2023-03-15T01:18:32;100646.97;;;1.21;100.00
71109;BME280;59614;51.012;-1.648;2023-03-15T01:20:58;100651.25;;;1.19;100.00
71109;BME280;59614;51.012;-1.648;2023-03-15T01:23:24;100654.66;;;1.17;100.00
71109;BME280;59614;51.012;-1.648;2023-03-15T01:25:50;100650.38;;;1.17;100.00
71109;BME280;59614;51.012;-1.648;2023-03-15T01:28:15;100659.06;;;1.19;100.00
71109;BME280;59614;51.012;-1.648;2023-03-15T01:30:48;100660.88;;;1.22;100.00
71109;BME280;59614;51.012;-1.648;2023-03-15T01:33:14;100660.78;;;1.19;100.00
71109;BME280;59614;51.012;-1.648;2023-03-15T01:35:39;100659.03;;;1.18;100.00
71109;BME280;59614;51.012;-1.648;2023-03-15T01:38:04;100671.91;;;1.13;100.00
71109;BME280;59614;51.012;-1.648;2023-03-15T01:40:30;100681.34;;;1.10;100.00
71109;BME280;59614;51.012;-1.648;2023-03-15T01:51:00;100683.44;;;0.91;100.00
71109;BME280;59614;51.012;-1.648;2023-03-15T01:53:28;100690.34;;;0.89;100.00
71109;BME280;59614;51.012;-1.648;2023-03-15T01:55:55;100685.16;;;0.89;100.00
71109;BME280;59614;51.012;-1.648;2023-03-15T01:58:23;100689.69;;;0.98;100.00
71109;BME280;59614;51.012;-1.648;2023-03-15T02:00:51;100685.50;;;1.03;100.00
71109;BME280;59614;51.012;-1.648;2023-03-15T02:03:23;100687.88;;;0.94;100.00
71109;BME280;59614;51.012;-1.648;2023-03-15T02:05:58;100692.84;;;0.86;100.00
71109;BME280;59614;51.012;-1.648;2023-03-15T02:08:29;100687.44;;;0.78;100.00
71109;BME280;59614;51.012;-1.648;2023-03-15T02:10:59;100676.00;;;0.71;100.00
71109;BME280;59614;51.012;-1.648;2023-03-15T02:13:28;100672.22;;;0.60;100.00
71109;BME280;59614;51.012;-1.648;2023-03-15T02:15:55;100681.53;;;0.53;100.00
71109;BME280;59614;51.012;-1.648;2023-03-15T02:18:20;100679.84;;;0.54;100.00
71109;BME280;59614;51.012;-1.648;2023-03-15T02:20:56;100680.78;;;0.56;100.00
71109;BME280;59614;51.012;-1.648;2023-03-15T02:23:27;100677.97;;;0.50;100.00
71109;BME280;59614;51.012;-1.648;2023-03-15T02:28:25;100677.88;;;0.46;100.00
71109;BME280;59614;51.012;-1.648;2023-03-15T02:30:50;100684.84;;;0.48;100.00
71109;BME280;59614;51.012;-1.648;2023-03-15T02:33:39;100690.81;;;0.43;100.00
71109;BME280;59614;51.012;-1.648;2023-03-15T02:36:30;100688.94;;;0.39;100.00
71109;BME280;59614;51.012;-1.648;2023-03-15T02:38:56;100697.56;;;0.38;100.00
71109;BME280;59614;51.012;-1.648;2023-03-15T02:41:27;100694.97;;;0.38;100.00
71109;BME280;59614;51.012;-1.648;2023-03-15T02:43:58;100700.00;;;0.32;100.00
71109;BME280;59614;51.012;-1.648;2023-03-15T02:46:25;100702.53;;;0.30;100.00
71109;BME280;59614;51.012;-1.648;2023-03-15T02:48:52;100701.75;;;0.33;100.00
71109;BME280;59614;51.012;-1.648;2023-03-15T02:51:20;100697.41;;;0.32;100.00
71109;BME280;59614;51.012;-1.648;2023-03-15T02:53:47;100698.22;;;0.31;100.00
71109;BME280;59614;51.012;-1.648;2023-03-15T02:56:12;100687.19;;;0.38;100.00
71109;BME280;59614;51.012;-1.648;2023-03-15T02:58:39;100694.03;;;0.36;100.00
71109;BME280;59614;51.012;-1.648;2023-03-15T03:01:04;100693.31;;;0.40;100.00
71109;BME280;59614;51.012;-1.648;2023-03-15T03:03:30;100683.16;;;0.48;100.00
71109;BME280;59614;51.012;-1.648;2023-03-15T03:05:55;100677.13;;;0.49;100.00
71109;BME280;59614;51.012;-1.648;2023-03-15T03:08:21;100678.72;;;0.45;100.00
71109;BME280;59614;51.012;-1.648;2023-03-15T03:10:46;100675.28;;;0.46;100.00
71109;BME280;59614;51.012;-1.648;2023-03-15T03:13:12;100688.09;;;0.40;100.00
71109;BME280;59614;51.012;-1.648;2023-03-15T03:15:38;100693.91;;;0.32;100.00
71109;BME280;59614;51.012;-1.648;2023-03-15T03:18:04;100697.34;;;0.30;100.00
71109;BME280;59614;51.012;-1.648;2023-03-15T03:20:29;100699.16;;;0.33;100.00
71109;BME280;59614;51.012;-1.648;2023-03-15T03:22:55;100709.44;;;0.30;100.00
71109;BME280;59614;51.012;-1.648;2023-03-15T03:25:20;100731.16;;;0.32;100.00
71109;BME280;59614;51.012;-1.648;2023-03-15T03:27:46;100726.53;;;0.23;100.00
71109;BME280;59614;51.012;-1.648;2023-03-15T03:30:13;100721.16;;;0.17;100.00
71109;BME280;59614;51.012;-1.648;2023-03-15T03:32:39;100721.81;;;0.10;100.00
71109;BME280;59614;51.012;-1.648;2023-03-15T03:35:06;100724.44;;;0.11;100.00
71109;BME280;59614;51.012;-1.648;2023-03-15T03:37:32;100721.13;;;0.15;100.00
71109;BME280;59614;51.012;-1.648;2023-03-15T03:40:00;100737.47;;;0.13;100.00
71109;BME280;59614;51.012;-1.648;2023-03-15T03:42:26;100736.31;;;0.03;100.00
71109;BME280;59614;51.012;-1.648;2023-03-15T03:44:51;100739.66;;;-0.01;100.00
71109;BME280;59614;51.012;-1.648;2023-03-15T03:47:18;100744.84;;;-0.01;100.00
71109;BME280;59614;51.012;-1.648;2023-03-15T03:49:44;100748.41;;;0.03;100.00
71109;BME280;59614;51.012;-1.648;2023-03-15T03:52:09;100744.19;;;0.06;100.00
71109;BME280;59614;51.012;-1.648;2023-03-15T03:54:35;100743.47;;;0.10;100.00
71109;BME280;59614;51.012;-1.648;2023-03-15T03:57:00;100741.69;;;0.09;100.00
71109;BME280;59614;51.012;-1.648;2023-03-15T03:59:26;100737.69;;;-0.08;100.00
71109;BME280;59614;51.012;-1.648;2023-03-15T04:01:51;100744.34;;;-0.17;100.00
71109;BME280;59614;51.012;-1.648;2023-03-15T04:04:17;100746.78;;;-0.21;100.00
71109;BME280;59614;51.012;-1.648;2023-03-15T04:06:42;100742.28;;;-0.27;100.00
71109;BME280;59614;51.012;-1.648;2023-03-15T04:09:14;100740.31;;;-0.34;100.00
71109;BME280;59614;51.012;-1.648;2023-03-15T04:11:42;100732.59;;;-0.33;100.00
71109;BME280;59614;51.012;-1.648;2023-03-15T04:14:09;100732.72;;;-0.28;100.00
71109;BME280;59614;51.012;-1.648;2023-03-15T04:16:34;100737.19;;;-0.24;100.00
71109;BME280;59614;51.012;-1.648;2023-03-15T04:19:00;100739.66;;;-0.28;100.00
71109;BME280;59614;51.012;-1.648;2023-03-15T04:21:26;100736.88;;;-0.33;100.00
71109;BME280;59614;51.012;-1.648;2023-03-15T04:23:59;100731.53;;;-0.38;100.00
71109;BME280;59614;51.012;-1.648;2023-03-15T04:26:25;100733.25;;;-0.38;100.00
71109;BME280;59614;51.012;-1.648;2023-03-15T04:28:56;100740.09;;;-0.40;100.00
71109;BME280;59614;51.012;-1.648;2023-03-15T04:31:22;100739.91;;;-0.47;100.00
71109;BME280;59614;51.012;-1.648;2023-03-15T04:33:54;100733.03;;;-0.44;100.00
71109;BME280;59614;51.012;-1.648;2023-03-15T04:36:21;100739.28;;;-0.65;100.00
71109;BME280;59614;51.012;-1.648;2023-03-15T04:38:47;100750.91;;;-0.80;100.00
71109;BME280;59614;51.012;-1.648;2023-03-15T04:41:14;100759.69;;;-0.74;100.00
71109;BME280;59614;51.012;-1.648;2023-03-15T04:43:40;100750.16;;;-0.75;100.00
71109;BME280;59614;51.012;-1.648;2023-03-15T04:46:06;100747.84;;;-0.68;100.00
71109;BME280;59614;51.012;-1.648;2023-03-15T04:48:31;100747.28;;;-0.59;100.00
71109;BME280;59614;51.012;-1.648;2023-03-15T04:50:57;100743.25;;;-0.49;100.00
71109;BME280;59614;51.012;-1.648;2023-03-15T04:53:22;100743.03;;;-0.57;100.00
71109;BME280;59614;51.012;-1.648;2023-03-15T04:55:48;100740.50;;;-0.54;100.00
71109;BME280;59614;51.012;-1.648;2023-03-15T04:58:13;100742.91;;;-0.60;100.00
71109;BME280;59614;51.012;-1.648;2023-03-15T05:00:39;100748.53;;;-0.72;100.00
71109;BME280;59614;51.012;-1.648;2023-03-15T05:03:04;100750.97;;;-0.76;100.00
71109;BME280;59614;51.012;-1.648;2023-03-15T05:05:31;100753.50;;;-0.80;100.00
71109;BME280;59614;51.012;-1.648;2023-03-15T05:07:58;100751.28;;;-0.93;100.00
71109;BME280;59614;51.012;-1.648;2023-03-15T05:10:23;100749.22;;;-1.02;100.00
71109;BME280;59614;51.012;-1.648;2023-03-15T05:12:50;100743.94;;;-1.05;100.00
71109;BME280;59614;51.012;-1.648;2023-03-15T05:15:16;100733.66;;;-1.03;100.00
71109;BME280;59614;51.012;-1.648;2023-03-15T05:17:41;100741.75;;;-0.94;100.00
71109;BME280;59614;51.012;-1.648;2023-03-15T05:20:11;100741.41;;;-0.79;100.00
71109;BME280;59614;51.012;-1.648;2023-03-15T05:22:37;100743.47;;;-0.69;100.00
71109;BME280;59614;51.012;-1.648;2023-03-15T05:25:03;100738.41;;;-0.66;100.00
71109;BME280;59614;51.012;-1.648;2023-03-15T05:27:29;100744.69;;;-0.59;100.00
71109;BME280;59614;51.012;-1.648;2023-03-15T05:29:56;100748.09;;;-0.60;100.00
71109;BME280;59614;51.012;-1.648;2023-03-15T05:32:22;100748.25;;;-0.55;100.00
71109;BME280;59614;51.012;-1.648;2023-03-15T05:34:51;100758.00;;;-0.48;100.00
71109;BME280;59614;51.012;-1.648;2023-03-15T05:37:21;100766.00;;;-0.42;100.00
71109;BME280;59614;51.012;-1.648;2023-03-15T05:39:46;100765.31;;;-0.36;100.00
71109;BME280;59614;51.012;-1.648;2023-03-15T05:42:11;100767.13;;;-0.34;100.00
71109;BME280;59614;51.012;-1.648;2023-03-15T05:44:37;100763.66;;;-0.34;100.00
71109;BME280;59614;51.012;-1.648;2023-03-15T05:47:03;100762.72;;;-0.36;100.00
71109;BME280;59614;51.012;-1.648;2023-03-15T05:49:28;100777.31;;;-0.40;100.00
71109;BME280;59614;51.012;-1.648;2023-03-15T05:51:54;100785.09;;;-0.40;100.00
71109;BME280;59614;51.012;-1.648;2023-03-15T05:54:19;100780.78;;;-0.39;100.00
71109;BME280;59614;51.012;-1.648;2023-03-15T05:56:44;100792.69;;;-0.44;100.00
71109;BME280;59614;51.012;-1.648;2023-03-15T05:59:10;100790.50;;;-0.32;100.00
71109;BME280;59614;51.012;-1.648;2023-03-15T06:01:35;100784.22;;;-0.39;100.00
71109;BME280;59614;51.012;-1.648;2023-03-15T06:04:01;100783.47;;;-0.36;100.00
71109;BME280;59614;51.012;-1.648;2023-03-15T06:06:26;100785.69;;;-0.47;100.00
71109;BME280;59614;51.012;-1.648;2023-03-15T06:08:52;100791.53;;;-0.53;100.00
71109;BME280;59614;51.012;-1.648;2023-03-15T06:11:17;100793.53;;;-0.70;100.00
71109;BME280;59614;51.012;-1.648;2023-03-15T06:13:43;100801.25;;;-1.20;100.00
71109;BME280;59614;51.012;-1.648;2023-03-15T06:16:08;100796.31;;;-1.14;100.00
71109;BME280;59614;51.012;-1.648;2023-03-15T06:18:33;100797.50;;;-1.04;100.00
71109;BME280;59614;51.012;-1.648;2023-03-15T06:20:59;100801.13;;;-1.23;100.00
71109;BME280;59614;51.012;-1.648;2023-03-15T06:23:24;100798.66;;;-1.20;100.00
71109;BME280;59614;51.012;-1.648;2023-03-15T06:25:50;100805.13;;;-1.09;100.00
71109;BME280;59614;51.012;-1.648;2023-03-15T06:28:15;100799.69;;;-0.92;100.00
71109;BME280;59614;51.012;-1.648;2023-03-15T06:30:41;100805.09;;;-0.86;100.00
71109;BME280;59614;51.012;-1.648;2023-03-15T06:33:06;100807.00;;;-0.80;100.00
71109;BME280;59614;51.012;-1.648;2023-03-15T06:35:31;100800.50;;;-0.93;100.00
71109;BME280;59614;51.012;-1.648;2023-03-15T06:37:57;100817.09;;;-0.88;100.00
71109;BME280;59614;51.012;-1.648;2023-03-15T06:40:22;100811.66;;;-0.71;100.00
71109;BME280;59614;51.012;-1.648;2023-03-15T06:42:48;100815.38;;;-0.63;100.00
71109;BME280;59614;51.012;-1.648;2023-03-15T06:45:13;100824.59;;;-0.71;100.00
71109;BME280;59614;51.012;-1.648;2023-03-15T06:47:41;100814.59;;;-0.60;100.00
71109;BME280;59614;51.012;-1.648;2023-03-15T06:50:07;100819.78;;;-0.60;100.00
71109;BME280;59614;51.012;-1.648;2023-03-15T06:52:33;100823.66;;;-0.73;100.00
71109;BME280;59614;51.012;-1.648;2023-03-15T06:54:58;100810.38;;;-0.83;100.00
71109;BME280;59614;51.012;-1.648;2023-03-15T06:57:24;100816.94;;;-0.68;100.00
71109;BME280;59614;51.012;-1.648;2023-03-15T06:59:49;100827.53;;;-0.62;100.00
71109;BME280;59614;51.012;-1.648;2023-03-15T07:02:17;100826.59;;;-0.40;100.00
71109;BME280;59614;51.012;-1.648;2023-03-15T07:04:43;100829.84;;;-0.45;100.00
71109;BME280;59614;51.012;-1.648;2023-03-15T07:07:12;100826.06;;;-0.29;100.00
71109;BME280;59614;51.012;-1.648;2023-03-15T07:09:38;100829.13;;;-0.16;100.00
71109;BME280;59614;51.012;-1.648;2023-03-15T07:12:04;100820.03;;;-0.03;100.00
71109;BME280;59614;51.012;-1.648;2023-03-15T07:14:29;100828.78;;;0.01;100.00
71109;BME280;59614;51.012;-1.648;2023-03-15T07:16:54;100838.84;;;0.18;100.00
71109;BME280;59614;51.012;-1.648;2023-03-15T07:19:20;100841.72;;;0.25;100.00
71109;BME280;59614;51.012;-1.648;2023-03-15T07:21:46;100840.34;;;0.37;100.00
71109;BME280;59614;51.012;-1.648;2023-03-15T07:24:11;100829.69;;;0.56;100.00
71109;BME280;59614;51.012;-1.648;2023-03-15T07:26:37;100838.81;;;0.72;100.00
71109;BME280;59614;51.012;-1.648;2023-03-15T07:29:02;100837.41;;;0.82;100.00
71109;BME280;59614;51.012;-1.648;2023-03-15T07:31:28;100840.69;;;0.76;100.00
71109;BME280;59614;51.012;-1.648;2023-03-15T07:33:53;100838.22;;;0.81;100.00
71109;BME280;59614;51.012;-1.648;2023-03-15T07:36:19;100835.31;;;0.99;100.00
71109;BME280;59614;51.012;-1.648;2023-03-15T07:38:46;100841.06;;;0.89;100.00
71109;BME280;59614;51.012;-1.648;2023-03-15T07:41:12;100839.66;;;0.42;100.00
71109;BME280;59614;51.012;-1.648;2023-03-15T07:43:37;100847.19;;;0.62;100.00
71109;BME280;59614;51.012;-1.648;2023-03-15T07:46:02;100847.94;;;0.87;100.00
71109;BME280;59614;51.012;-1.648;2023-03-15T07:48:28;100845.13;;;1.10;100.00
71109;BME280;59614;51.012;-1.648;2023-03-15T07:50:54;100847.63;;;1.06;100.00
71109;BME280;59614;51.012;-1.648;2023-03-15T07:53:20;100842.13;;;1.26;100.00
71109;BME280;59614;51.012;-1.648;2023-03-15T07:55:46;100843.88;;;1.27;100.00
71109;BME280;59614;51.012;-1.648;2023-03-15T07:58:12;100842.88;;;1.22;100.00
71109;BME280;59614;51.012;-1.648;2023-03-15T08:00:37;100832.47;;;1.22;100.00
71109;BME280;59614;51.012;-1.648;2023-03-15T08:03:03;100832.03;;;1.06;100.00
71109;BME280;59614;51.012;-1.648;2023-03-15T08:05:29;100822.22;;;1.27;100.00
71109;BME280;59614;51.012;-1.648;2023-03-15T08:07:55;100826.50;;;1.58;100.00
71109;BME280;59614;51.012;-1.648;2023-03-15T08:10:21;100821.56;;;1.35;100.00
71109;BME280;59614;51.012;-1.648;2023-03-15T08:12:46;100830.00;;;1.27;100.00
71109;BME280;59614;51.012;-1.648;2023-03-15T08:15:13;100823.69;;;1.18;100.00
71109;BME280;59614;51.012;-1.648;2023-03-15T08:17:40;100831.22;;;1.39;100.00
71109;BME280;59614;51.012;-1.648;2023-03-15T08:20:07;100829.44;;;1.37;100.00
71109;BME280;59614;51.012;-1.648;2023-03-15T08:22:36;100831.06;;;1.65;100.00
71109;BME280;59614;51.012;-1.648;2023-03-15T08:25:02;100828.72;;;1.76;100.00
71109;BME280;59614;51.012;-1.648;2023-03-15T08:27:27;100834.72;;;1.74;100.00
71109;BME280;59614;51.012;-1.648;2023-03-15T08:29:52;100830.69;;;1.85;100.00
71109;BME280;59614;51.012;-1.648;2023-03-15T08:32:18;100837.81;;;1.92;100.00
71109;BME280;59614;51.012;-1.648;2023-03-15T08:34:44;100841.22;;;2.25;100.00
71109;BME280;59614;51.012;-1.648;2023-03-15T08:37:10;100837.44;;;2.12;100.00
71109;BME280;59614;51.012;-1.648;2023-03-15T08:39:37;100841.94;;;2.19;100.00
71109;BME280;59614;51.012;-1.648;2023-03-15T08:42:03;100839.94;;;2.07;100.00
71109;BME280;59614;51.012;-1.648;2023-03-15T08:44:28;100838.41;;;2.17;100.00
71109;BME280;59614;51.012;-1.648;2023-03-15T08:46:53;100836.75;;;2.19;100.00
71109;BME280;59614;51.012;-1.648;2023-03-15T08:49:19;100835.50;;;2.40;100.00
71109;BME280;59614;51.012;-1.648;2023-03-15T08:51:44;100834.16;;;2.21;100.00
71109;BME280;59614;51.012;-1.648;2023-03-15T08:54:10;100835.69;;;2.11;100.00
71109;BME280;59614;51.012;-1.648;2023-03-15T08:56:37;100840.75;;;2.41;100.00
71109;BME280;59614;51.012;-1.648;2023-03-15T08:59:03;100837.28;;;2.42;100.00
71109;BME280;59614;51.012;-1.648;2023-03-15T09:01:28;100838.59;;;2.61;100.00
71109;BME280;59614;51.012;-1.648;2023-03-15T09:03:54;100838.41;;;2.93;100.00
71109;BME280;59614;51.012;-1.648;2023-03-15T09:06:20;100836.72;;;2.94;100.00
71109;BME280;59614;51.012;-1.648;2023-03-15T09:08:46;100829.53;;;2.84;100.00
71109;BME280;59614;51.012;-1.648;2023-03-15T09:11:11;100834.09;;;2.92;100.00
71109;BME280;59614;51.012;-1.648;2023-03-15T09:13:37;100827.47;;;3.10;100.00
71109;BME280;59614;51.012;-1.648;2023-03-15T09:16:03;100827.28;;;3.01;100.00
71109;BME280;59614;51.012;-1.648;2023-03-15T09:18:29;100837.44;;;2.87;100.00
71109;BME280;59614;51.012;-1.648;2023-03-15T09:20:54;100828.22;;;3.04;100.00
71109;BME280;59614;51.012;-1.648;2023-03-15T09:23:20;100827.75;;;3.24;100.00
71109;BME280;59614;51.012;-1.648;2023-03-15T09:25:45;100826.91;;;3.25;100.00
71109;BME280;59614;51.012;-1.648;2023-03-15T09:28:11;100832.47;;;3.42;100.00
71109;BME280;59614;51.012;-1.648;2023-03-15T09:30:37;100819.09;;;3.27;100.00
71109;BME280;59614;51.012;-1.648;2023-03-15T09:33:03;100825.69;;;3.52;100.00
71109;BME280;59614;51.012;-1.648;2023-03-15T09:35:29;100828.38;;;3.57;100.00
71109;BME280;59614;51.012;-1.648;2023-03-15T09:37:55;100828.16;;;3.93;100.00
71109;BME280;59614;51.012;-1.648;2023-03-15T09:45:28;100829.09;;;3.97;98.42
71109;BME280;59614;51.012;-1.648;2023-03-15T09:48:07;100829.84;;;3.88;98.48
71109;BME280;59614;51.012;-1.648;2023-03-15T09:50:44;100827.00;;;3.77;99.05
71109;BME280;59614;51.012;-1.648;2023-03-15T09:55:41;100836.22;;;4.07;98.42
71109;BME280;59614;51.012;-1.648;2023-03-15T09:58:17;100829.28;;;4.08;97.66
71109;BME280;59614;51.012;-1.648;2023-03-15T10:03:26;100841.56;;;4.13;97.77
71109;BME280;59614;51.012;-1.648;2023-03-15T10:05:57;100842.31;;;4.60;98.12
71109;BME280;59614;51.012;-1.648;2023-03-15T10:08:24;100837.28;;;4.75;97.05
71109;BME280;59614;51.012;-1.648;2023-03-15T10:10:52;100850.94;;;4.54;95.80
71109;BME280;59614;51.012;-1.648;2023-03-15T10:21:53;100846.69;;;4.64;95.87
71109;BME280;59614;51.012;-1.648;2023-03-15T10:24:30;100849.22;;;4.58;94.17
71109;BME280;59614;51.012;-1.648;2023-03-15T10:27:08;100849.53;;;4.78;93.56
71109;BME280;59614;51.012;-1.648;2023-03-15T10:29:38;100839.19;;;4.89;93.72
71109;BME280;59614;51.012;-1.648;2023-03-15T10:32:04;100832.38;;;5.02;92.81
71109;BME280;59614;51.012;-1.648;2023-03-15T10:34:30;100825.53;;;5.12;91.19
71109;BME280;59614;51.012;-1.648;2023-03-15T10:36:55;100827.34;;;5.17;90.78
71109;BME280;59614;51.012;-1.648;2023-03-15T10:39:23;100832.22;;;4.88;91.03
71109;BME280;59614;51.012;-1.648;2023-03-15T10:41:50;100819.66;;;5.28;90.68
71109;BME280;59614;51.012;-1.648;2023-03-15T10:44:19;100829.38;;;5.41;90.45
71109;BME280;59614;51.012;-1.648;2023-03-15T10:47:04;100821.25;;;5.17;89.91
71109;BME280;59614;51.012;-1.648;2023-03-15T10:49:38;100821.56;;;5.45;89.96
71109;BME280;59614;51.012;-1.648;2023-03-15T10:52:04;100818.69;;;5.23;90.84
71109;BME280;59614;51.012;-1.648;2023-03-15T10:54:31;100816.41;;;5.54;90.84
71109;BME280;59614;51.012;-1.648;2023-03-15T10:57:05;100817.94;;;5.35;90.52
71109;BME280;59614;51.012;-1.648;2023-03-15T10:59:59;100816.56;;;5.66;90.14
71109;BME280;59614;51.012;-1.648;2023-03-15T11:02:48;100809.50;;;5.61;89.64
71109;BME280;59614;51.012;-1.648;2023-03-15T11:05:16;100820.06;;;5.67;89.13
71109;BME280;59614;51.012;-1.648;2023-03-15T11:08:00;100814.44;;;6.22;88.21
71109;BME280;59614;51.012;-1.648;2023-03-15T11:10:28;100820.59;;;6.24;89.11
71109;BME280;59614;51.012;-1.648;2023-03-15T11:13:07;100815.78;;;5.75;88.94
71109;BME280;59614;51.012;-1.648;2023-03-15T11:15:33;100807.44;;;6.18;88.93
71109;BME280;59614;51.012;-1.648;2023-03-15T11:17:59;100809.28;;;6.31;88.16
71109;BME280;59614;51.012;-1.648;2023-03-15T11:20:30;100812.72;;;6.24;88.10
71109;BME280;59614;51.012;-1.648;2023-03-15T11:23:22;100814.44;;;6.22;89.38
71109;BME280;59614;51.012;-1.648;2023-03-15T11:25:46;100807.63;;;6.47;86.20
71109;BME280;59614;51.012;-1.648;2023-03-15T11:28:18;100816.59;;;6.82;87.44
71109;BME280;59614;51.012;-1.648;2023-03-15T11:30:46;100813.81;;;6.51;84.81
71109;BME280;59614;51.012;-1.648;2023-03-15T11:33:25;100806.81;;;6.55;85.31
71109;BME280;59614;51.012;-1.648;2023-03-15T11:35:51;100802.59;;;6.82;83.87
71109;BME280;59614;51.012;-1.648;2023-03-15T11:38:29;100798.13;;;6.67;83.19
71109;BME280;59614;51.012;-1.648;2023-03-15T11:40:58;100795.75;;;7.15;83.96
71109;BME280;59614;51.012;-1.648;2023-03-15T11:43:36;100806.38;;;7.69;82.25
71109;BME280;59614;51.012;-1.648;2023-03-15T11:49:11;100800.22;;;7.37;79.24
71109;BME280;59614;51.012;-1.648;2023-03-15T11:51:38;100804.50;;;7.21;81.24
71109;BME280;59614;51.012;-1.648;2023-03-15T11:56:56;100798.41;;;7.19;80.49
71109;BME280;59614;51.012;-1.648;2023-03-15T11:59:30;100786.91;;;6.94;81.98
71109;BME280;59614;51.012;-1.648;2023-03-15T12:02:00;100786.09;;;7.10;82.66
71109;BME280;59614;51.012;-1.648;2023-03-15T12:07:00;100782.59;;;7.02;84.67
71109;BME280;59614;51.012;-1.648;2023-03-15T12:11:57;100774.81;;;7.41;85.65
71109;BME280;59614;51.012;-1.648;2023-03-15T12:14:32;100786.09;;;7.12;86.63
71109;BME280;59614;51.012;-1.648;2023-03-15T12:22:34;100778.31;;;7.40;90.52
71109;BME280;59614;51.012;-1.648;2023-03-15T12:25:31;100779.19;;;7.37;91.70
71109;BME280;59614;51.012;-1.648;2023-03-15T12:27:57;100774.81;;;7.32;92.94
71109;BME280;59614;51.012;-1.648;2023-03-15T12:30:32;100760.81;;;7.48;90.26
71109;BME280;59614;51.012;-1.648;2023-03-15T12:33:01;100759.00;;;7.27;89.92
71109;BME280;59614;51.012;-1.648;2023-03-15T12:35:32;100764.34;;;7.53;93.38
71109;BME280;59614;51.012;-1.648;2023-03-15T12:38:02;100766.91;;;7.24;93.37
71109;BME280;59614;51.012;-1.648;2023-03-15T12:40:37;100759.88;;;7.21;92.91
71109;BME280;59614;51.012;-1.648;2023-03-15T12:43:03;100758.19;;;7.34;93.85
71109;BME280;59614;51.012;-1.648;2023-03-15T12:45:40;100769.59;;;7.78;93.15
71109;BME280;59614;51.012;-1.648;2023-03-15T12:55:50;100753.88;;;7.87;92.82
71109;BME280;59614;51.012;-1.648;2023-03-15T12:58:18;100747.72;;;7.75;92.19
71109;BME280;59614;51.012;-1.648;2023-03-15T13:00:45;100749.41;;;7.23;94.39
71109;BME280;59614;51.012;-1.648;2023-03-15T13:03:18;100736.19;;;6.95;95.93
71109;BME280;59614;51.012;-1.648;2023-03-15T13:11:20;100716.13;;;7.28;99.68
71109;BME280;59614;51.012;-1.648;2023-03-15T13:19:45;100706.47;;;7.10;99.21
71109;BME280;59614;51.012;-1.648;2023-03-15T13:22:26;100695.91;;;6.88;100.00
71109;BME280;59614;51.012;-1.648;2023-03-15T13:25:05;100706.34;;;6.67;100.00
71109;BME280;59614;51.012;-1.648;2023-03-15T13:27:50;100697.69;;;6.92;100.00
71109;BME280;59614;51.012;-1.648;2023-03-15T13:30:36;100694.22;;;6.97;100.00
71109;BME280;59614;51.012;-1.648;2023-03-15T13:35:34;100682.88;;;7.35;99.95
71109;BME280;59614;51.012;-1.648;2023-03-15T13:38:22;100684.66;;;7.47;97.30
71109;BME280;59614;51.012;-1.648;2023-03-15T13:40:48;100679.41;;;7.76;99.05
71109;BME280;59614;51.012;-1.648;2023-03-15T13:43:14;100666.25;;;7.08;97.33
71109;BME280;59614;51.012;-1.648;2023-03-15T13:45:43;100668.00;;;7.21;99.55
71109;BME280;59614;51.012;-1.648;2023-03-15T13:48:09;100667.06;;;6.93;98.78
71109;BME280;59614;51.012;-1.648;2023-03-15T13:50:35;100652.25;;;7.09;99.58